Terminal Aerodrome Forecast
Issued by NWS

Home | Current Version | Previous Version | Text Only | Print | Product List | Glossary On
Versions: 1 2 3 4 5 6 7 8 9 10 11 12 13 14 15 16 17
000
FTUS42 KFFC 040540
TAFFTY
TAF
KFTY 040540Z 0406/0506 00000KT P6SM SKC
      TEMPO 0410/0413 4SM BR
     FM041400 01004KT P6SM SCT040 SCT250
     FM041700 03005KT P6SM SCT050 BKN250=

USA.gov is the U.S. government's official web portal to all federal, state and local government web resources and services.